Rosharon, TX

3:41 AM CST on February 21, 2017 (GMT -0600)
Houston-Southwest | | Change Station
Active Advisory: Marine Fog Advisory

Elev 69 ft 29.51 °N, 95.48 °W | Updated 26 minutes ago

Partly Cloudy
Partly Cloudy
56 °F
Feels Like 56 °F
N
5
Wind Variable Wind from SE

Today
High -- | Low -- °F
--% Chance of Precip.
Yesterday
High -- | Low -- °F
Precip. -- in
Pressure 29.94 in
Visibility 7.0 miles
Clouds Scattered Clouds 8000 ft
Mostly Cloudy 11000 ft
Dew Point 56 °F
Humidity 100%
Rainfall 0.00 in
Snow Depth Not available.
6:55 AM 6:15 PM
Waning Crescent, 26% visible
METAR KAXH 210915Z AUTO 14004KT 7SM -RA SCT080 BKN110 14/14 A2994 RMK AO2 T01360136
Pressure 29.94 in
Visibility 7.0 miles
Clouds Scattered Clouds 8000 ft
Mostly Cloudy 11000 ft
Dew Point 56 °F
Humidity 100%
Rainfall 0.00 in
Snow Depth Not available.
6:55 AM 6:15 PM
Waning Crescent, 26% visible
METAR KAXH 210915Z AUTO 14004KT 7SM -RA SCT080 BKN110 14/14 A2994 RMK AO2 T01360136

Get Your Daily Forecast Email!

Thanks for signing up!

Be on the lookout for a verification email in your inbox.

You'll start receiving the daily forecast at 8 AM.

×

10-Day Weather Forecast

Almanac

Astronomy

Feb. 21, 2017 Rise Set
Actual Time
Civil Twilight
Nautical Twilight
Astronomical Twilight
Moon
Length of Visible Light
Length of Day
Tomorrow will be .
, % of the Moon is Illuminated

Today's Extremes

State Highs State Lows

Community

WunderPhotos

Upload Photos

1,962,540 photos uploaded!

WunderBlog® & News

Nearby

Air Quality

  Air Quality AQ Index Pollutant
Not available.

Snow Depth

Station Depth Elevation

Earthquake Activity

City Distance Mag. Time & Date
Minimum magnitude displayed is 2.5.

Coastal Water Temperatures

Place Temperature

Stations

Nearby Weather Stations

Station Location Temp. Windchill Dew Point Humidity Wind Precip. Elev Updated Type
                   

Watches & Warnings

Marine Fog Advisory
Issued: 3:31 AM CST Feb. 21, 2017 – National Weather Service

... Dense fog advisory in effect until 7 am CST this morning...

The National Weather Service in Houston/Galveston has issued a
dense fog advisory, which is in effect until 7 am CST this
morning.

* Visibility... less than 1 nautical mile.

Precautionary/preparedness actions...

Mariners should be prepared for sudden changes in visibility over
short distances. Reduce your speed and keep a lookout for other
vessels... buoys and breakwaters. Keep your navigation lights on.
Inexperienced mariners... especially those operating smaller craft
or not equipped with radar... should consider seeking safe Harbor.